createdAt,value
2022-12-11T00:00:30.942Z,0.98
2022-12-11T00:02:58.763Z,1.10
2022-12-11T00:05:26.364Z,2.20
2022-12-11T00:07:54.041Z,1.00
2022-12-11T00:10:22.453Z,0.60
2022-12-11T00:12:49.977Z,0.73
2022-12-11T00:15:17.576Z,0.90
2022-12-11T00:17:45.368Z,0.95
2022-12-11T00:20:13.014Z,0.82
2022-12-11T00:22:40.599Z,0.67
2022-12-11T00:25:09.003Z,1.05
2022-12-11T00:27:36.975Z,0.75
2022-12-11T00:30:05.696Z,1.00
2022-12-11T00:32:37.486Z,0.90
2022-12-11T00:35:05.621Z,0.87
2022-12-11T00:37:33.527Z,1.37
2022-12-11T00:40:01.099Z,0.80
2022-12-11T00:42:28.675Z,0.70
2022-12-11T00:44:56.553Z,0.77
2022-12-11T00:47:24.026Z,0.70
2022-12-11T00:49:51.584Z,0.55
2022-12-11T00:52:19.287Z,0.55
2022-12-11T00:54:46.753Z,0.70
2022-12-11T00:57:14.234Z,0.60
2022-12-11T00:59:42.058Z,0.70
2022-12-11T01:02:09.651Z,0.50
2022-12-11T01:04:37.282Z,0.50
2022-12-11T01:07:05.212Z,0.50
2022-12-11T01:09:51.513Z,0.60
2022-12-11T01:12:19.293Z,0.70
2022-12-11T01:14:46.873Z,0.90
2022-12-11T01:17:14.511Z,0.75
2022-12-11T01:19:42.366Z,0.40
2022-12-11T01:22:09.954Z,0.50
2022-12-11T01:24:38.151Z,0.50
2022-12-11T01:27:05.958Z,0.40
2022-12-11T01:29:33.737Z,0.52
2022-12-11T01:32:01.305Z,0.70
2022-12-11T01:34:30.654Z,0.50
2022-12-11T01:36:58.297Z,0.50
2022-12-11T01:39:25.852Z,0.70
2022-12-11T01:42:01.345Z,1.20
2022-12-11T01:44:31.798Z,1.05
2022-12-11T01:46:59.671Z,1.50
2022-12-11T01:49:27.887Z,1.90
2022-12-11T01:51:59.121Z,2.20
2022-12-11T01:54:28.352Z,2.08
2022-12-11T01:57:00.254Z,2.20
2022-12-11T01:59:29.957Z,2.00
2022-12-11T02:02:02.902Z,1.87
2022-12-11T02:04:31.362Z,1.55
2022-12-11T02:06:59.170Z,1.90
2022-12-11T02:09:35.134Z,2.35
2022-12-11T02:12:37.569Z,2.35
2022-12-11T02:15:39.126Z,2.33
2022-12-11T02:18:18.846Z,2.60
2022-12-11T02:21:02.686Z,2.70
2022-12-11T02:23:45.731Z,2.53
2022-12-11T02:26:36.927Z,2.78
2022-12-11T02:29:13.528Z,2.60
2022-12-11T02:31:52.022Z,3.90
2022-12-11T02:34:29.254Z,3.45
2022-12-11T02:36:59.779Z,3.53
2022-12-11T02:39:28.055Z,4.05
2022-12-11T02:41:56.754Z,5.37
2022-12-11T02:44:29.776Z,5.32
2022-12-11T02:46:58.502Z,5.18
2022-12-11T02:49:26.852Z,6.37
2022-12-11T02:51:55.067Z,5.45
2022-12-11T02:54:27.131Z,7.03
2022-12-11T02:57:02.249Z,5.80
2022-12-11T02:59:35.099Z,5.95
2022-12-11T03:02:03.506Z,5.47
2022-12-11T03:04:32.315Z,6.87
2022-12-11T03:07:12.500Z,5.70
2022-12-11T03:09:41.362Z,6.03
2022-12-11T03:12:11.539Z,5.90
2022-12-11T03:14:40.033Z,6.60
2022-12-11T03:17:25.791Z,6.85
2022-12-11T03:20:18.086Z,6.73
2022-12-11T03:22:58.587Z,6.47
2022-12-11T03:25:32.079Z,5.82
2022-12-11T03:28:11.036Z,5.80
2022-12-11T03:30:39.312Z,5.90
2022-12-11T03:33:11.987Z,6.33
2022-12-11T03:35:43.014Z,6.95
2022-12-11T03:38:24.069Z,6.50
2022-12-11T03:40:54.491Z,5.72
2022-12-11T03:43:22.821Z,5.97
2022-12-11T03:45:52.233Z,6.80
2022-12-11T03:48:21.228Z,7.43
2022-12-11T03:50:49.858Z,6.87
2022-12-11T03:53:18.820Z,7.07
2022-12-11T03:55:46.509Z,7.40
2022-12-11T03:58:14.474Z,6.53
2022-12-11T04:00:42.022Z,6.57
2022-12-11T04:03:17.833Z,6.53
2022-12-11T04:05:47.682Z,6.93
2022-12-11T04:08:16.870Z,7.90
2022-12-11T04:10:44.524Z,7.73
2022-12-11T04:13:12.345Z,6.45
2022-12-11T04:15:40.454Z,6.32
2022-12-11T04:18:27.001Z,7.22
2022-12-11T04:21:14.393Z,7.03
2022-12-11T04:24:00.516Z,6.80
2022-12-11T04:26:28.433Z,8.65
2022-12-11T04:28:56.031Z,6.90
2022-12-11T04:31:23.787Z,7.47
2022-12-11T04:33:51.719Z,7.43
2022-12-11T04:36:19.334Z,7.30
2022-12-11T04:38:46.892Z,6.60
2022-12-11T04:41:15.680Z,7.05
2022-12-11T04:43:46.707Z,6.90
2022-12-11T04:46:17.175Z,8.95
2022-12-11T04:48:45.665Z,7.33
2022-12-11T04:51:14.321Z,7.45
2022-12-11T04:53:42.297Z,8.73
2022-12-11T04:56:11.991Z,7.78
2022-12-11T04:58:41.131Z,7.75
2022-12-11T05:01:17.932Z,7.40
2022-12-11T05:03:46.506Z,8.73
2022-12-11T05:06:14.840Z,9.63
2022-12-11T05:08:43.170Z,9.65
2022-12-11T05:11:12.676Z,8.13
2022-12-11T05:13:40.745Z,9.10
2022-12-11T05:16:09.786Z,8.60
2022-12-11T05:18:37.448Z,9.15
2022-12-11T05:21:07.858Z,10.23
2022-12-11T05:23:36.120Z,9.07
2022-12-11T05:26:06.508Z,9.10
2022-12-11T05:28:36.541Z,7.97
2022-12-11T05:31:17.900Z,8.18
2022-12-11T05:33:46.671Z,7.45
2022-12-11T05:36:17.001Z,8.50
2022-12-11T05:38:45.665Z,9.63
2022-12-11T05:41:16.207Z,8.10
2022-12-11T05:43:43.862Z,7.80
2022-12-11T05:46:14.240Z,8.55
2022-12-11T05:48:43.357Z,9.15
2022-12-11T05:51:16.122Z,8.57
2022-12-11T05:53:44.944Z,8.23
2022-12-11T05:56:15.052Z,8.68
2022-12-11T05:58:43.905Z,8.80
2022-12-11T06:01:20.794Z,10.05
2022-12-11T06:03:48.852Z,8.87
2022-12-11T06:06:16.705Z,9.20
2022-12-11T06:08:44.449Z,9.95
2022-12-11T06:11:22.324Z,9.68
2022-12-11T06:13:52.399Z,9.25
2022-12-11T06:16:21.038Z,9.93
2022-12-11T06:18:48.867Z,9.15
2022-12-11T06:21:22.810Z,8.73
2022-12-11T06:23:52.792Z,9.25
2022-12-11T06:26:20.989Z,9.32
2022-12-11T06:28:49.198Z,8.87
2022-12-11T06:31:17.977Z,8.98
2022-12-11T06:33:45.790Z,9.38
2022-12-11T06:36:16.205Z,8.63
2022-12-11T06:38:44.711Z,10.00
2022-12-11T06:41:13.102Z,9.20
2022-12-11T06:43:41.582Z,9.07
2022-12-11T06:46:12.654Z,9.88
2022-12-11T06:48:42.314Z,10.10
2022-12-11T06:51:15.628Z,8.20
2022-12-11T06:53:44.197Z,8.87
2022-12-11T06:56:14.529Z,8.65
2022-12-11T06:58:43.317Z,8.63
2022-12-11T07:01:14.874Z,7.30
2022-12-11T07:03:43.009Z,8.68
2022-12-11T07:06:10.697Z,8.27
2022-12-11T07:08:38.227Z,7.62
2022-12-11T07:11:07.653Z,6.15
2022-12-11T07:13:35.730Z,7.28
2022-12-11T07:16:04.813Z,7.82
2022-12-11T07:18:32.816Z,8.07
2022-12-11T07:21:00.564Z,8.05
2022-12-11T07:23:28.698Z,7.95
2022-12-11T07:25:56.896Z,8.18
2022-12-11T07:28:26.100Z,7.28
2022-12-11T07:30:53.839Z,7.40
2022-12-11T07:33:21.670Z,7.57
2022-12-11T07:35:49.302Z,9.23
2022-12-11T07:38:17.260Z,7.47
2022-12-11T07:40:45.128Z,7.50
2022-12-11T07:43:12.731Z,6.13
2022-12-11T07:45:40.230Z,7.47
2022-12-11T07:48:08.403Z,7.47
2022-12-11T07:50:39.737Z,6.70
2022-12-11T07:53:08.084Z,7.43
2022-12-11T07:55:35.681Z,6.97
2022-12-11T07:58:03.649Z,7.62
2022-12-11T08:00:31.461Z,5.95
2022-12-11T08:02:59.331Z,6.03
2022-12-11T08:05:26.857Z,5.62
2022-12-11T08:07:54.431Z,6.70
2022-12-11T08:10:23.069Z,6.50
2022-12-11T08:12:50.987Z,5.53
2022-12-11T08:15:18.758Z,6.53
2022-12-11T08:17:46.538Z,9.07
2022-12-11T08:20:14.472Z,7.17
2022-12-11T08:22:41.957Z,7.53
2022-12-11T08:25:10.107Z,7.03
2022-12-11T08:27:37.826Z,7.68
2022-12-11T08:30:06.179Z,7.37
2022-12-11T08:32:34.711Z,7.33
2022-12-11T08:35:02.294Z,7.35
2022-12-11T08:37:29.758Z,5.57
2022-12-11T08:39:58.116Z,6.70
2022-12-11T08:42:25.658Z,5.85
2022-12-11T08:44:53.123Z,6.83
2022-12-11T08:47:20.993Z,6.43
2022-12-11T08:49:48.848Z,6.10
2022-12-11T08:52:16.606Z,6.20
2022-12-11T08:54:44.381Z,6.57
2022-12-11T08:57:11.927Z,5.27
2022-12-11T08:59:41.378Z,6.37
2022-12-11T09:02:12.322Z,6.78
2022-12-11T09:04:39.959Z,6.80
2022-12-11T09:07:07.356Z,7.35
2022-12-11T09:09:35.141Z,5.93
2022-12-11T09:12:04.679Z,6.53
2022-12-11T09:14:32.120Z,5.50
2022-12-11T09:16:59.860Z,5.50
2022-12-11T09:19:32.101Z,4.82
2022-12-11T09:22:02.864Z,5.40
2022-12-11T09:24:30.367Z,6.10
2022-12-11T09:26:57.844Z,5.72
2022-12-11T09:29:26.331Z,5.50
2022-12-11T09:31:53.964Z,6.60
2022-12-11T09:34:26.066Z,5.93
2022-12-11T09:36:57.440Z,6.65
2022-12-11T09:39:25.248Z,6.30
2022-12-11T09:42:11.285Z,6.40
2022-12-11T09:44:56.249Z,5.80
2022-12-11T09:47:36.630Z,5.27
2022-12-11T09:50:10.583Z,6.12
2022-12-11T09:52:49.472Z,5.72
2022-12-11T09:55:27.459Z,5.25
2022-12-11T09:58:16.355Z,5.70
2022-12-11T10:01:11.872Z,5.83
2022-12-11T10:04:05.612Z,6.30
2022-12-11T10:06:38.657Z,5.95
2022-12-11T10:09:18.149Z,6.00
2022-12-11T10:11:56.784Z,6.70
2022-12-11T10:14:27.682Z,7.70
2022-12-11T10:17:03.278Z,5.70
2022-12-11T10:19:32.519Z,5.47
2022-12-11T10:22:01.180Z,6.68
2022-12-11T10:25:09.611Z,7.65
2022-12-11T10:27:31.362Z,6.33
2022-12-11T10:30:16.615Z,6.57
2022-12-11T10:32:47.461Z,8.02
2022-12-11T10:35:42.414Z,7.60
2022-12-11T10:38:16.223Z,7.03
2022-12-11T10:40:49.252Z,6.77
2022-12-11T10:43:17.416Z,6.43
2022-12-11T10:45:53.271Z,6.03
2022-12-11T10:48:22.121Z,5.90
2022-12-11T10:51:04.538Z,5.47
2022-12-11T10:53:33.725Z,5.10
2022-12-11T10:56:01.923Z,5.75
2022-12-11T10:58:34.467Z,5.45
2022-12-11T11:01:11.124Z,4.87
2022-12-11T11:03:52.751Z,4.80
2022-12-11T11:06:21.432Z,5.07
2022-12-11T11:08:51.446Z,5.00
2022-12-11T11:11:23.400Z,5.53
2022-12-11T11:13:51.714Z,4.30
2022-12-11T11:16:21.228Z,4.43
2022-12-11T11:18:54.848Z,4.63
2022-12-11T11:21:25.003Z,4.37
2022-12-11T11:23:53.839Z,4.25
2022-12-11T11:26:23.048Z,4.35
2022-12-11T11:28:53.541Z,6.53
2022-12-11T11:31:23.179Z,5.53
2022-12-11T11:34:06.020Z,5.78
2022-12-11T11:36:35.800Z,5.87
2022-12-11T11:39:18.811Z,5.93
2022-12-11T11:41:52.331Z,4.80
2022-12-11T11:44:25.978Z,6.23
2022-12-11T11:47:04.016Z,5.87
2022-12-11T11:50:04.403Z,5.18
2022-12-11T11:53:00.845Z,4.47
2022-12-11T11:55:42.163Z,4.25
2022-12-11T11:58:19.434Z,5.00
2022-12-11T12:00:53.397Z,5.10
2022-12-11T12:03:23.694Z,4.93
2022-12-11T12:05:55.826Z,5.32
2022-12-11T12:08:58.379Z,8.50
2022-12-11T12:11:41.297Z,5.03
2022-12-11T12:14:51.062Z,6.87
2022-12-11T12:17:09.692Z,5.75
2022-12-11T12:20:11.111Z,5.05
2022-12-11T12:22:53.931Z,9.32
2022-12-11T12:25:46.251Z,8.00
2022-12-11T12:28:32.853Z,8.52
2022-12-11T12:31:17.636Z,10.63
2022-12-11T12:33:51.146Z,11.18
2022-12-11T12:36:39.834Z,8.10
2022-12-11T12:39:42.688Z,8.03
2022-12-11T12:42:19.611Z,6.85
2022-12-11T12:45:14.871Z,9.32
2022-12-11T12:47:46.742Z,9.25
2022-12-11T12:50:21.006Z,5.72
2022-12-11T12:52:49.476Z,6.33
2022-12-11T12:55:24.326Z,7.45
2022-12-11T12:58:00.614Z,6.80
2022-12-11T13:00:31.204Z,6.03
2022-12-11T13:03:02.659Z,5.97
2022-12-11T13:05:33.233Z,6.97
2022-12-11T13:08:03.731Z,6.47
2022-12-11T13:10:40.454Z,6.03
2022-12-11T13:13:31.664Z,7.50
2022-12-11T13:16:19.375Z,6.80
2022-12-11T13:18:48.324Z,6.13
2022-12-11T13:21:28.112Z,5.70
2022-12-11T13:24:07.205Z,6.93
2022-12-11T13:26:34.717Z,5.68
2022-12-11T13:29:02.468Z,5.57
2022-12-11T13:31:40.130Z,6.07
2022-12-11T13:34:20.654Z,5.53
2022-12-11T13:36:52.767Z,5.72
2022-12-11T13:39:25.513Z,5.80
2022-12-11T13:42:06.068Z,5.32
2022-12-11T13:44:38.989Z,4.77
2022-12-11T13:47:12.202Z,5.68
2022-12-11T13:49:43.661Z,6.40
2022-12-11T13:52:22.489Z,5.47
2022-12-11T13:54:53.096Z,8.85
2022-12-11T13:57:25.977Z,7.50
2022-12-11T13:59:56.402Z,6.57
2022-12-11T14:02:34.234Z,6.32
2022-12-11T14:05:12.900Z,5.87
2022-12-11T14:07:48.065Z,6.82
2022-12-11T14:10:29.958Z,6.00
2022-12-11T14:13:01.939Z,5.85
2022-12-11T14:15:31.770Z,7.43
2022-12-11T14:18:00.393Z,6.30
2022-12-11T14:20:30.255Z,7.10
2022-12-11T14:23:18.986Z,8.73
2022-12-11T14:26:17.125Z,6.78
2022-12-11T14:28:44.930Z,5.87
2022-12-11T14:31:17.335Z,7.40
2022-12-11T14:33:54.221Z,7.32
2022-12-11T14:36:22.054Z,6.53
2022-12-11T14:39:05.926Z,6.95
2022-12-11T14:41:45.662Z,6.90
2022-12-11T14:44:16.920Z,6.62
2022-12-11T14:46:56.755Z,6.93
2022-12-11T14:50:06.210Z,6.23
2022-12-11T14:52:37.414Z,7.37
2022-12-11T14:55:29.196Z,6.57
2022-12-11T14:58:03.544Z,6.47
2022-12-11T15:00:35.886Z,5.57
2022-12-11T15:03:07.197Z,6.63
2022-12-11T15:05:40.596Z,6.43
2022-12-11T15:08:11.125Z,7.60
2022-12-11T15:11:14.705Z,7.90
2022-12-11T15:13:52.660Z,9.23
2022-12-11T15:16:22.651Z,7.27
2022-12-11T15:18:51.954Z,8.75
2022-12-11T15:21:29.028Z,7.28
2022-12-11T15:23:58.847Z,7.53
2022-12-11T15:26:36.737Z,8.05
2022-12-11T15:29:07.421Z,6.90
2022-12-11T15:31:35.282Z,6.62
2022-12-11T15:34:03.384Z,7.60
2022-12-11T15:36:30.737Z,7.20
2022-12-11T15:38:58.942Z,7.20
2022-12-11T15:41:27.023Z,6.63
2022-12-11T15:43:58.930Z,6.65
2022-12-11T15:46:27.800Z,7.35
2022-12-11T15:48:56.529Z,7.43
2022-12-11T15:51:25.309Z,6.53
2022-12-11T15:53:53.283Z,7.07
2022-12-11T15:56:20.866Z,7.55
2022-12-11T15:58:48.826Z,7.20
2022-12-11T16:01:16.688Z,6.28
2022-12-11T16:03:45.765Z,7.00
2022-12-11T16:06:13.690Z,6.77
2022-12-11T16:08:41.237Z,6.10
2022-12-11T16:11:12.658Z,6.05
2022-12-11T16:13:40.276Z,7.40
2022-12-11T16:16:08.015Z,7.25
2022-12-11T16:18:35.839Z,8.00
2022-12-11T16:21:05.263Z,7.32
2022-12-11T16:23:32.851Z,6.95
2022-12-11T16:26:06.248Z,6.53
2022-12-11T16:28:33.994Z,6.35
2022-12-11T16:31:01.919Z,7.27
2022-12-11T16:33:29.572Z,7.93
2022-12-11T16:35:57.890Z,7.22
2022-12-11T16:38:25.747Z,6.53
2022-12-11T16:41:01.613Z,5.95
2022-12-11T16:43:29.333Z,6.03
2022-12-11T16:45:56.893Z,6.70
2022-12-11T16:48:24.523Z,7.20
2022-12-11T16:50:54.469Z,6.22
2022-12-11T16:53:22.191Z,6.82
2022-12-11T16:55:49.938Z,6.87
2022-12-11T16:58:21.398Z,6.60
2022-12-11T17:00:49.588Z,7.12
2022-12-11T17:03:18.522Z,7.60
2022-12-11T17:05:46.574Z,7.70
2022-12-11T17:08:14.450Z,7.13
2022-12-11T17:10:42.785Z,7.62
2022-12-11T17:13:10.682Z,7.70
2022-12-11T17:15:42.093Z,9.05
2022-12-11T17:18:13.225Z,7.87
2022-12-11T17:20:45.046Z,7.63
2022-12-11T17:23:13.533Z,9.35
2022-12-11T17:25:42.930Z,7.93
2022-12-11T17:28:11.680Z,7.30
2022-12-11T17:30:41.638Z,8.07
2022-12-11T17:33:10.139Z,8.33
2022-12-11T17:35:38.354Z,7.07
2022-12-11T17:38:06.392Z,7.20
2022-12-11T17:40:34.449Z,7.28
2022-12-11T17:43:06.392Z,7.50
2022-12-11T17:45:34.441Z,7.13
2022-12-11T17:48:02.554Z,6.90
2022-12-11T17:50:30.787Z,8.60
2022-12-11T17:52:58.878Z,7.10
2022-12-11T17:55:26.412Z,7.70
2022-12-11T17:57:54.072Z,7.50
2022-12-11T18:00:22.308Z,7.18
2022-12-11T18:02:50.182Z,7.25
2022-12-11T18:05:18.215Z,7.25
2022-12-11T18:07:46.034Z,8.38
2022-12-11T18:10:14.421Z,7.90
2022-12-11T18:12:41.938Z,7.85
2022-12-11T18:15:11.024Z,7.47
2022-12-11T18:17:39.201Z,7.37
2022-12-11T18:20:14.528Z,7.97
2022-12-11T18:22:42.745Z,7.03
2022-12-11T18:25:12.210Z,7.78
2022-12-11T18:27:40.339Z,8.65
2022-12-11T18:30:08.836Z,7.53
2022-12-11T18:32:37.146Z,7.00
2022-12-11T18:35:04.820Z,8.40
2022-12-11T18:37:32.860Z,6.90
2022-12-11T18:40:05.804Z,8.48
2022-12-11T18:42:33.933Z,7.07
2022-12-11T18:45:02.187Z,7.35
2022-12-11T18:47:30.910Z,7.07
2022-12-11T18:50:03.943Z,7.25
2022-12-11T18:52:34.876Z,7.62
2022-12-11T18:55:02.927Z,6.95
2022-12-11T18:57:31.060Z,7.00
2022-12-11T19:00:07.016Z,7.10
2022-12-11T19:02:36.031Z,6.37
2022-12-11T19:05:04.180Z,7.35
2022-12-11T19:07:32.128Z,7.97
2022-12-11T19:10:04.266Z,8.13
2022-12-11T19:12:31.787Z,7.53
2022-12-11T19:14:59.448Z,7.93
2022-12-11T19:17:28.666Z,7.80
2022-12-11T19:19:57.269Z,6.75
2022-12-11T19:22:25.084Z,6.93
2022-12-11T19:24:53.148Z,6.20
2022-12-11T19:27:20.797Z,7.28
2022-12-11T19:29:48.659Z,6.50
2022-12-11T19:32:16.823Z,6.80
2022-12-11T19:34:44.495Z,6.55
2022-12-11T19:37:12.174Z,6.13
2022-12-11T19:39:40.429Z,6.30
2022-12-11T19:42:08.218Z,6.20
2022-12-11T19:44:36.000Z,5.75
2022-12-11T19:47:04.216Z,6.32
2022-12-11T19:49:31.925Z,5.67
2022-12-11T19:51:59.626Z,6.32
2022-12-11T19:54:27.645Z,7.15
2022-12-11T19:56:57.860Z,6.60
2022-12-11T19:59:26.116Z,6.47
2022-12-11T20:01:54.184Z,7.77
2022-12-11T20:04:22.811Z,7.43
2022-12-11T20:06:50.324Z,6.47
2022-12-11T20:09:18.243Z,6.93
2022-12-11T20:11:47.411Z,7.18
2022-12-11T20:14:23.992Z,6.37
2022-12-11T20:17:11.004Z,7.15
2022-12-11T20:19:41.845Z,9.27
2022-12-11T20:22:10.023Z,7.20
2022-12-11T20:24:38.143Z,7.90
2022-12-11T20:27:05.930Z,6.27
2022-12-11T20:29:33.918Z,6.10
2022-12-11T20:32:03.140Z,7.70
2022-12-11T20:34:32.744Z,6.53
2022-12-11T20:37:00.700Z,6.65
2022-12-11T20:39:29.303Z,8.70
2022-12-11T20:41:57.024Z,8.38
2022-12-11T20:44:25.010Z,7.82
2022-12-11T20:46:52.820Z,7.87
2022-12-11T20:49:20.535Z,7.28
2022-12-11T20:51:48.577Z,6.30
2022-12-11T20:54:16.302Z,6.12
2022-12-11T20:56:44.592Z,5.68
2022-12-11T20:59:13.416Z,7.65
2022-12-11T21:01:41.089Z,6.22
2022-12-11T21:04:09.050Z,5.53
2022-12-11T21:06:38.811Z,5.75
2022-12-11T21:09:10.792Z,5.37
2022-12-11T21:11:39.222Z,6.15
2022-12-11T21:14:06.903Z,6.18
2022-12-11T21:16:36.442Z,6.30
2022-12-11T21:19:05.489Z,5.57
2022-12-11T21:21:42.742Z,6.65
2022-12-11T21:24:22.527Z,6.05
2022-12-11T21:26:50.472Z,5.68
2022-12-11T21:29:18.698Z,6.60
2022-12-11T21:31:46.256Z,6.03
2022-12-11T21:34:14.113Z,6.25
2022-12-11T21:36:42.120Z,5.37
2022-12-11T21:39:11.888Z,6.15
2022-12-11T21:41:40.763Z,5.43
2022-12-11T21:46:56.750Z,6.20
2022-12-11T21:49:24.486Z,5.18
2022-12-11T21:51:52.003Z,5.55
2022-12-11T21:54:19.773Z,5.50
2022-12-11T21:56:47.509Z,6.85
2022-12-11T21:59:15.438Z,6.40
2022-12-11T22:01:46.023Z,5.62
2022-12-11T22:04:14.902Z,5.32
2022-12-11T22:06:43.619Z,5.80
2022-12-11T22:09:12.549Z,6.57
2022-12-11T22:11:41.293Z,7.55
2022-12-11T22:14:16.181Z,7.47
2022-12-11T22:16:44.143Z,8.50
2022-12-11T22:19:11.830Z,7.90
2022-12-11T22:21:40.058Z,8.40
2022-12-11T22:24:08.048Z,7.47
2022-12-11T22:26:35.613Z,9.48
2022-12-11T22:29:03.303Z,8.40
2022-12-11T22:31:31.357Z,8.20
2022-12-11T22:33:58.975Z,10.10
2022-12-11T22:36:27.188Z,8.60
2022-12-11T22:38:55.361Z,8.82
2022-12-11T22:41:28.815Z,9.63
2022-12-11T22:43:57.405Z,10.60
2022-12-11T22:46:27.437Z,9.85
2022-12-11T22:48:55.386Z,10.85
2022-12-11T22:51:23.612Z,11.25
2022-12-11T22:53:51.278Z,10.32
2022-12-11T22:56:19.080Z,10.47
2022-12-11T22:58:47.073Z,11.55
2022-12-11T23:01:19.351Z,9.95
2022-12-11T23:03:47.584Z,10.13
2022-12-11T23:06:16.560Z,10.80
2022-12-11T23:08:44.250Z,12.30
2022-12-11T23:11:16.900Z,11.63
2022-12-11T23:13:44.446Z,11.68
2022-12-11T23:16:12.723Z,10.50
2022-12-11T23:18:40.275Z,10.07
2022-12-11T23:21:08.278Z,9.37
2022-12-11T23:23:36.037Z,10.25
2022-12-11T23:26:04.887Z,9.05
2022-12-11T23:28:32.356Z,9.80
2022-12-11T23:31:00.465Z,11.05
2022-12-11T23:33:28.418Z,11.43
2022-12-11T23:35:57.953Z,10.35
2022-12-11T23:38:25.785Z,8.65
2022-12-11T23:40:53.499Z,9.05
2022-12-11T23:43:21.272Z,10.75
2022-12-11T23:45:49.279Z,9.47
2022-12-11T23:48:17.392Z,9.50
2022-12-11T23:50:44.925Z,9.88
2022-12-11T23:53:12.981Z,8.52
2022-12-11T23:55:42.122Z,8.23
2022-12-11T23:58:10.805Z,8.10
